sensor_id;sensor_type;location;lat;lon;timestamp;P1;durP1;ratioP1;P2;durP2;ratioP2
72369;SDS011;60343;-32.030;115.880;2023-06-19T00:02:20;5.75;;;2.10;;
72369;SDS011;60343;-32.030;115.880;2023-06-19T00:05:03;4.30;;;1.80;;
72369;SDS011;60343;-32.030;115.880;2023-06-19T00:07:39;3.95;;;1.83;;
72369;SDS011;60343;-32.030;115.880;2023-06-19T00:10:16;4.80;;;2.10;;
72369;SDS011;60343;-32.030;115.880;2023-06-19T00:12:52;4.45;;;1.52;;
72369;SDS011;60343;-32.030;115.880;2023-06-19T00:15:28;4.40;;;1.67;;
72369;SDS011;60343;-32.030;115.880;2023-06-19T00:18:05;3.70;;;1.55;;
72369;SDS011;60343;-32.030;115.880;2023-06-19T00:20:48;4.70;;;1.48;;
72369;SDS011;60343;-32.030;115.880;2023-06-19T00:23:25;2.97;;;1.38;;
72369;SDS011;60343;-32.030;115.880;2023-06-19T00:26:03;3.97;;;1.58;;
72369;SDS011;60343;-32.030;115.880;2023-06-19T00:28:41;6.05;;;1.42;;
72369;SDS011;60343;-32.030;115.880;2023-06-19T00:31:18;3.00;;;1.35;;
72369;SDS011;60343;-32.030;115.880;2023-06-19T00:33:54;4.15;;;1.33;;
72369;SDS011;60343;-32.030;115.880;2023-06-19T00:36:36;2.95;;;1.10;;
72369;SDS011;60343;-32.030;115.880;2023-06-19T00:39:13;3.85;;;1.17;;
72369;SDS011;60343;-32.030;115.880;2023-06-19T00:41:49;2.95;;;1.10;;
72369;SDS011;60343;-32.030;115.880;2023-06-19T00:44:27;4.22;;;1.27;;
72369;SDS011;60343;-32.030;115.880;2023-06-19T00:47:03;2.97;;;1.05;;
72369;SDS011;60343;-32.030;115.880;2023-06-19T00:49:40;5.70;;;1.20;;
72369;SDS011;60343;-32.030;115.880;2023-06-19T00:52:23;3.65;;;1.13;;
72369;SDS011;60343;-32.030;115.880;2023-06-19T00:54:59;4.65;;;1.27;;
72369;SDS011;60343;-32.030;115.880;2023-06-19T00:57:36;2.92;;;1.20;;
72369;SDS011;60343;-32.030;115.880;2023-06-19T01:00:14;2.78;;;1.00;;
72369;SDS011;60343;-32.030;115.880;2023-06-19T01:02:50;3.67;;;1.10;;
72369;SDS011;60343;-32.030;115.880;2023-06-19T01:05:26;4.28;;;1.20;;
72369;SDS011;60343;-32.030;115.880;2023-06-19T01:08:10;3.53;;;1.35;;
72369;SDS011;60343;-32.030;115.880;2023-06-19T01:10:50;4.65;;;1.20;;
72369;SDS011;60343;-32.030;115.880;2023-06-19T01:13:31;5.35;;;1.40;;
72369;SDS011;60343;-32.030;115.880;2023-06-19T01:16:14;3.55;;;1.23;;
72369;SDS011;60343;-32.030;115.880;2023-06-19T01:18:52;5.40;;;1.45;;
72369;SDS011;60343;-32.030;115.880;2023-06-19T01:21:29;5.95;;;1.50;;
72369;SDS011;60343;-32.030;115.880;2023-06-19T01:24:11;4.63;;;1.50;;
72369;SDS011;60343;-32.030;115.880;2023-06-19T01:26:48;5.03;;;1.35;;
72369;SDS011;60343;-32.030;115.880;2023-06-19T01:29:24;3.92;;;1.45;;
72369;SDS011;60343;-32.030;115.880;2023-06-19T01:32:02;4.95;;;1.52;;
72369;SDS011;60343;-32.030;115.880;2023-06-19T01:34:44;3.78;;;1.38;;
72369;SDS011;60343;-32.030;115.880;2023-06-19T01:37:22;4.47;;;1.65;;
72369;SDS011;60343;-32.030;115.880;2023-06-19T01:40:08;4.30;;;1.45;;
72369;SDS011;60343;-32.030;115.880;2023-06-19T01:42:48;5.07;;;1.40;;
72369;SDS011;60343;-32.030;115.880;2023-06-19T01:45:27;5.72;;;1.80;;
72369;SDS011;60343;-32.030;115.880;2023-06-19T01:48:04;6.22;;;1.60;;
72369;SDS011;60343;-32.030;115.880;2023-06-19T01:50:41;3.20;;;1.02;;
72369;SDS011;60343;-32.030;115.880;2023-06-19T01:53:21;5.60;;;1.27;;
72369;SDS011;60343;-32.030;115.880;2023-06-19T01:56:03;4.60;;;1.10;;
72369;SDS011;60343;-32.030;115.880;2023-06-19T01:58:40;4.57;;;0.88;;
72369;SDS011;60343;-32.030;115.880;2023-06-19T02:01:16;3.00;;;0.85;;
72369;SDS011;60343;-32.030;115.880;2023-06-19T02:03:53;1.83;;;0.70;;
72369;SDS011;60343;-32.030;115.880;2023-06-19T02:06:30;6.72;;;0.90;;
72369;SDS011;60343;-32.030;115.880;2023-06-19T02:09:06;4.95;;;1.00;;
72369;SDS011;60343;-32.030;115.880;2023-06-19T02:11:49;3.25;;;0.90;;
72369;SDS011;60343;-32.030;115.880;2023-06-19T02:14:25;3.65;;;1.08;;
72369;SDS011;60343;-32.030;115.880;2023-06-19T02:17:01;2.17;;;0.70;;
72369;SDS011;60343;-32.030;115.880;2023-06-19T02:19:37;3.85;;;0.95;;
72369;SDS011;60343;-32.030;115.880;2023-06-19T02:22:14;3.92;;;1.10;;
72369;SDS011;60343;-32.030;115.880;2023-06-19T02:24:52;3.60;;;1.10;;
72369;SDS011;60343;-32.030;115.880;2023-06-19T02:27:34;3.47;;;1.20;;
72369;SDS011;60343;-32.030;115.880;2023-06-19T02:30:11;4.30;;;1.10;;
72369;SDS011;60343;-32.030;115.880;2023-06-19T02:32:47;2.40;;;0.80;;
72369;SDS011;60343;-32.030;115.880;2023-06-19T02:35:24;3.10;;;0.95;;
72369;SDS011;60343;-32.030;115.880;2023-06-19T02:38:00;3.35;;;0.90;;
72369;SDS011;60343;-32.030;115.880;2023-06-19T02:40:38;2.40;;;0.65;;
72369;SDS011;60343;-32.030;115.880;2023-06-19T02:43:21;3.45;;;0.80;;
72369;SDS011;60343;-32.030;115.880;2023-06-19T02:45:57;2.85;;;0.70;;
72369;SDS011;60343;-32.030;115.880;2023-06-19T02:48:33;3.38;;;0.70;;
72369;SDS011;60343;-32.030;115.880;2023-06-19T02:51:10;2.50;;;0.73;;
72369;SDS011;60343;-32.030;115.880;2023-06-19T02:53:46;1.63;;;0.60;;
72369;SDS011;60343;-32.030;115.880;2023-06-19T02:56:22;1.58;;;0.50;;
72369;SDS011;60343;-32.030;115.880;2023-06-19T02:59:05;1.83;;;0.60;;
72369;SDS011;60343;-32.030;115.880;2023-06-19T03:01:41;1.80;;;0.60;;
72369;SDS011;60343;-32.030;115.880;2023-06-19T03:04:18;2.42;;;0.57;;
72369;SDS011;60343;-32.030;115.880;2023-06-19T03:06:55;2.83;;;0.68;;
72369;SDS011;60343;-32.030;115.880;2023-06-19T03:09:31;3.38;;;0.70;;
72369;SDS011;60343;-32.030;115.880;2023-06-19T03:12:07;2.60;;;0.60;;
72369;SDS011;60343;-32.030;115.880;2023-06-19T03:14:50;5.03;;;0.98;;
72369;SDS011;60343;-32.030;115.880;2023-06-19T03:17:27;3.22;;;0.82;;
72369;SDS011;60343;-32.030;115.880;2023-06-19T03:20:03;3.83;;;0.93;;
72369;SDS011;60343;-32.030;115.880;2023-06-19T03:22:40;2.75;;;0.90;;
72369;SDS011;60343;-32.030;115.880;2023-06-19T03:25:17;4.07;;;1.25;;
72369;SDS011;60343;-32.030;115.880;2023-06-19T03:27:53;4.18;;;1.08;;
72369;SDS011;60343;-32.030;115.880;2023-06-19T03:30:35;3.00;;;0.93;;
72369;SDS011;60343;-32.030;115.880;2023-06-19T03:33:12;2.95;;;0.90;;
72369;SDS011;60343;-32.030;115.880;2023-06-19T03:35:48;3.08;;;1.00;;
72369;SDS011;60343;-32.030;115.880;2023-06-19T03:38:24;3.80;;;1.23;;
72369;SDS011;60343;-32.030;115.880;2023-06-19T03:41:00;3.08;;;0.93;;
72369;SDS011;60343;-32.030;115.880;2023-06-19T03:43:37;3.17;;;1.13;;
72369;SDS011;60343;-32.030;115.880;2023-06-19T03:46:19;3.10;;;1.00;;
72369;SDS011;60343;-32.030;115.880;2023-06-19T03:48:56;2.83;;;1.05;;
72369;SDS011;60343;-32.030;115.880;2023-06-19T03:51:32;4.05;;;1.35;;
72369;SDS011;60343;-32.030;115.880;2023-06-19T03:54:09;4.25;;;1.40;;
72369;SDS011;60343;-32.030;115.880;2023-06-19T03:56:45;4.47;;;1.63;;
72369;SDS011;60343;-32.030;115.880;2023-06-19T03:59:22;4.47;;;1.40;;
72369;SDS011;60343;-32.030;115.880;2023-06-19T04:02:04;5.20;;;1.38;;
72369;SDS011;60343;-32.030;115.880;2023-06-19T04:04:41;4.95;;;1.35;;
72369;SDS011;60343;-32.030;115.880;2023-06-19T04:07:17;4.30;;;1.30;;
72369;SDS011;60343;-32.030;115.880;2023-06-19T04:09:53;5.15;;;1.30;;
72369;SDS011;60343;-32.030;115.880;2023-06-19T04:12:30;4.43;;;1.02;;
72369;SDS011;60343;-32.030;115.880;2023-06-19T04:15:06;2.88;;;0.82;;
72369;SDS011;60343;-32.030;115.880;2023-06-19T04:17:49;3.30;;;1.20;;
72369;SDS011;60343;-32.030;115.880;2023-06-19T04:20:27;3.45;;;1.10;;
72369;SDS011;60343;-32.030;115.880;2023-06-19T04:23:03;4.78;;;1.10;;
72369;SDS011;60343;-32.030;115.880;2023-06-19T04:25:39;5.55;;;1.20;;
72369;SDS011;60343;-32.030;115.880;2023-06-19T04:28:16;3.78;;;1.10;;
72369;SDS011;60343;-32.030;115.880;2023-06-19T04:30:52;3.50;;;0.80;;
72369;SDS011;60343;-32.030;115.880;2023-06-19T04:33:35;4.25;;;0.98;;
72369;SDS011;60343;-32.030;115.880;2023-06-19T04:36:11;3.80;;;1.10;;
72369;SDS011;60343;-32.030;115.880;2023-06-19T04:38:48;2.90;;;0.95;;
72369;SDS011;60343;-32.030;115.880;2023-06-19T04:41:24;5.40;;;1.10;;
72369;SDS011;60343;-32.030;115.880;2023-06-19T04:44:01;5.90;;;1.05;;
72369;SDS011;60343;-32.030;115.880;2023-06-19T04:46:38;3.95;;;0.95;;
72369;SDS011;60343;-32.030;115.880;2023-06-19T04:49:21;6.68;;;1.10;;
72369;SDS011;60343;-32.030;115.880;2023-06-19T04:51:57;3.85;;;0.85;;
72369;SDS011;60343;-32.030;115.880;2023-06-19T04:54:34;3.17;;;0.90;;
72369;SDS011;60343;-32.030;115.880;2023-06-19T04:57:17;2.83;;;0.80;;
72369;SDS011;60343;-32.030;115.880;2023-06-19T05:00:01;3.40;;;0.85;;
72369;SDS011;60343;-32.030;115.880;2023-06-19T05:02:39;2.88;;;0.90;;
72369;SDS011;60343;-32.030;115.880;2023-06-19T05:05:21;4.13;;;0.80;;
72369;SDS011;60343;-32.030;115.880;2023-06-19T05:07:59;3.13;;;0.80;;
72369;SDS011;60343;-32.030;115.880;2023-06-19T05:10:36;4.30;;;0.95;;
72369;SDS011;60343;-32.030;115.880;2023-06-19T05:13:12;3.50;;;0.98;;
72369;SDS011;60343;-32.030;115.880;2023-06-19T05:15:48;3.50;;;0.70;;
72369;SDS011;60343;-32.030;115.880;2023-06-19T05:18:24;2.50;;;0.65;;
72369;SDS011;60343;-32.030;115.880;2023-06-19T05:21:07;2.35;;;0.77;;
72369;SDS011;60343;-32.030;115.880;2023-06-19T05:23:43;2.25;;;0.60;;
72369;SDS011;60343;-32.030;115.880;2023-06-19T05:26:20;2.67;;;0.75;;
72369;SDS011;60343;-32.030;115.880;2023-06-19T05:28:56;2.10;;;0.70;;
72369;SDS011;60343;-32.030;115.880;2023-06-19T05:31:35;1.90;;;0.68;;
72369;SDS011;60343;-32.030;115.880;2023-06-19T05:34:11;1.88;;;0.73;;
72369;SDS011;60343;-32.030;115.880;2023-06-19T05:36:53;2.85;;;0.77;;
72369;SDS011;60343;-32.030;115.880;2023-06-19T05:39:30;3.45;;;0.70;;
72369;SDS011;60343;-32.030;115.880;2023-06-19T05:42:07;3.58;;;0.50;;
72369;SDS011;60343;-32.030;115.880;2023-06-19T05:44:43;2.60;;;0.68;;
72369;SDS011;60343;-32.030;115.880;2023-06-19T05:47:19;3.33;;;0.63;;
72369;SDS011;60343;-32.030;115.880;2023-06-19T05:49:57;2.30;;;0.40;;
72369;SDS011;60343;-32.030;115.880;2023-06-19T05:52:39;3.17;;;0.60;;
72369;SDS011;60343;-32.030;115.880;2023-06-19T05:55:16;4.85;;;0.65;;
72369;SDS011;60343;-32.030;115.880;2023-06-19T05:57:53;3.97;;;0.52;;
72369;SDS011;60343;-32.030;115.880;2023-06-19T06:00:30;2.75;;;0.50;;
72369;SDS011;60343;-32.030;115.880;2023-06-19T06:03:07;4.43;;;0.60;;
72369;SDS011;60343;-32.030;115.880;2023-06-19T06:05:43;1.98;;;0.28;;
72369;SDS011;60343;-32.030;115.880;2023-06-19T06:08:25;2.13;;;0.30;;
72369;SDS011;60343;-32.030;115.880;2023-06-19T06:11:02;0.90;;;0.30;;
72369;SDS011;60343;-32.030;115.880;2023-06-19T06:13:38;2.22;;;0.50;;
72369;SDS011;60343;-32.030;115.880;2023-06-19T06:16:15;2.42;;;0.50;;
72369;SDS011;60343;-32.030;115.880;2023-06-19T06:18:51;2.13;;;0.30;;
72369;SDS011;60343;-32.030;115.880;2023-06-19T06:21:27;1.40;;;0.30;;
72369;SDS011;60343;-32.030;115.880;2023-06-19T06:24:11;2.17;;;0.50;;
72369;SDS011;60343;-32.030;115.880;2023-06-19T06:26:48;3.60;;;0.50;;
72369;SDS011;60343;-32.030;115.880;2023-06-19T06:29:25;3.70;;;0.60;;
72369;SDS011;60343;-32.030;115.880;2023-06-19T06:32:04;3.25;;;0.47;;
72369;SDS011;60343;-32.030;115.880;2023-06-19T06:34:41;3.83;;;0.38;;
72369;SDS011;60343;-32.030;115.880;2023-06-19T06:37:18;2.08;;;0.47;;
72369;SDS011;60343;-32.030;115.880;2023-06-19T06:40:01;2.33;;;0.60;;
72369;SDS011;60343;-32.030;115.880;2023-06-19T06:42:38;3.25;;;0.50;;
72369;SDS011;60343;-32.030;115.880;2023-06-19T06:45:15;1.40;;;0.30;;
72369;SDS011;60343;-32.030;115.880;2023-06-19T06:47:52;1.23;;;0.30;;
72369;SDS011;60343;-32.030;115.880;2023-06-19T06:50:28;1.73;;;0.40;;
72369;SDS011;60343;-32.030;115.880;2023-06-19T06:53:05;1.95;;;0.50;;
72369;SDS011;60343;-32.030;115.880;2023-06-19T06:55:48;1.48;;;0.30;;
72369;SDS011;60343;-32.030;115.880;2023-06-19T06:58:24;1.33;;;0.30;;
72369;SDS011;60343;-32.030;115.880;2023-06-19T07:01:00;3.40;;;0.40;;
72369;SDS011;60343;-32.030;115.880;2023-06-19T07:03:36;1.80;;;0.32;;
72369;SDS011;60343;-32.030;115.880;2023-06-19T07:06:13;1.65;;;0.30;;
72369;SDS011;60343;-32.030;115.880;2023-06-19T07:08:49;2.42;;;0.30;;
72369;SDS011;60343;-32.030;115.880;2023-06-19T07:11:32;1.48;;;0.30;;
72369;SDS011;60343;-32.030;115.880;2023-06-19T07:14:08;2.10;;;0.30;;
72369;SDS011;60343;-32.030;115.880;2023-06-19T07:16:44;2.05;;;0.40;;
72369;SDS011;60343;-32.030;115.880;2023-06-19T07:19:21;1.52;;;0.20;;
72369;SDS011;60343;-32.030;115.880;2023-06-19T07:21:57;1.50;;;0.40;;
72369;SDS011;60343;-32.030;115.880;2023-06-19T07:24:33;2.97;;;0.57;;
72369;SDS011;60343;-32.030;115.880;2023-06-19T07:27:16;2.33;;;0.40;;
72369;SDS011;60343;-32.030;115.880;2023-06-19T07:29:54;2.50;;;0.40;;
72369;SDS011;60343;-32.030;115.880;2023-06-19T07:32:30;2.17;;;0.40;;
72369;SDS011;60343;-32.030;115.880;2023-06-19T07:35:06;1.83;;;0.40;;
72369;SDS011;60343;-32.030;115.880;2023-06-19T07:37:44;2.60;;;0.40;;
72369;SDS011;60343;-32.030;115.880;2023-06-19T07:40:20;1.83;;;0.30;;
72369;SDS011;60343;-32.030;115.880;2023-06-19T07:43:03;1.27;;;0.30;;
72369;SDS011;60343;-32.030;115.880;2023-06-19T07:45:39;0.55;;;0.25;;
72369;SDS011;60343;-32.030;115.880;2023-06-19T07:48:15;1.88;;;0.25;;
72369;SDS011;60343;-32.030;115.880;2023-06-19T07:50:52;2.90;;;0.50;;
72369;SDS011;60343;-32.030;115.880;2023-06-19T07:53:28;3.55;;;0.50;;
72369;SDS011;60343;-32.030;115.880;2023-06-19T07:56:06;2.28;;;0.32;;
72369;SDS011;60343;-32.030;115.880;2023-06-19T07:58:48;3.92;;;0.40;;
72369;SDS011;60343;-32.030;115.880;2023-06-19T08:01:25;1.88;;;0.40;;
72369;SDS011;60343;-32.030;115.880;2023-06-19T08:04:01;1.40;;;0.30;;
72369;SDS011;60343;-32.030;115.880;2023-06-19T08:06:37;1.30;;;0.35;;
72369;SDS011;60343;-32.030;115.880;2023-06-19T08:09:13;2.03;;;0.40;;
72369;SDS011;60343;-32.030;115.880;2023-06-19T08:11:50;4.30;;;0.40;;
72369;SDS011;60343;-32.030;115.880;2023-06-19T08:14:32;1.83;;;0.45;;
72369;SDS011;60343;-32.030;115.880;2023-06-19T08:17:08;3.88;;;0.50;;
72369;SDS011;60343;-32.030;115.880;2023-06-19T08:19:45;4.10;;;0.40;;
72369;SDS011;60343;-32.030;115.880;2023-06-19T08:22:21;3.05;;;0.40;;
72369;SDS011;60343;-32.030;115.880;2023-06-19T08:24:58;0.90;;;0.30;;
72369;SDS011;60343;-32.030;115.880;2023-06-19T08:27:34;1.60;;;0.30;;
72369;SDS011;60343;-32.030;115.880;2023-06-19T08:30:17;1.48;;;0.30;;
72369;SDS011;60343;-32.030;115.880;2023-06-19T08:32:54;1.60;;;0.40;;
72369;SDS011;60343;-32.030;115.880;2023-06-19T08:35:30;2.53;;;0.50;;
72369;SDS011;60343;-32.030;115.880;2023-06-19T08:38:06;1.55;;;0.47;;
72369;SDS011;60343;-32.030;115.880;2023-06-19T08:40:43;3.30;;;0.50;;
72369;SDS011;60343;-32.030;115.880;2023-06-19T08:43:19;2.70;;;0.40;;
72369;SDS011;60343;-32.030;115.880;2023-06-19T08:46:03;2.20;;;0.43;;
72369;SDS011;60343;-32.030;115.880;2023-06-19T08:48:44;1.70;;;0.50;;
72369;SDS011;60343;-32.030;115.880;2023-06-19T08:51:20;2.83;;;0.55;;
72369;SDS011;60343;-32.030;115.880;2023-06-19T08:54:01;0.50;;;0.38;;
72369;SDS011;60343;-32.030;115.880;2023-06-19T08:56:39;2.25;;;0.40;;
72369;SDS011;60343;-32.030;115.880;2023-06-19T08:59:16;2.53;;;0.70;;
72369;SDS011;60343;-32.030;115.880;2023-06-19T09:02:01;2.88;;;0.60;;
72369;SDS011;60343;-32.030;115.880;2023-06-19T09:04:37;2.25;;;0.40;;
72369;SDS011;60343;-32.030;115.880;2023-06-19T09:07:13;2.88;;;0.50;;
72369;SDS011;60343;-32.030;115.880;2023-06-19T09:09:49;2.72;;;0.40;;
72369;SDS011;60343;-32.030;115.880;2023-06-19T09:12:26;1.83;;;0.63;;
72369;SDS011;60343;-32.030;115.880;2023-06-19T09:15:02;1.67;;;0.40;;
72369;SDS011;60343;-32.030;115.880;2023-06-19T09:17:53;2.05;;;0.40;;
72369;SDS011;60343;-32.030;115.880;2023-06-19T09:20:37;2.45;;;0.73;;
72369;SDS011;60343;-32.030;115.880;2023-06-19T09:23:14;2.38;;;0.50;;
72369;SDS011;60343;-32.030;115.880;2023-06-19T09:25:51;3.53;;;0.70;;
72369;SDS011;60343;-32.030;115.880;2023-06-19T09:28:28;2.30;;;0.75;;
72369;SDS011;60343;-32.030;115.880;2023-06-19T09:31:04;2.03;;;0.60;;
72369;SDS011;60343;-32.030;115.880;2023-06-19T09:33:47;3.40;;;0.88;;
72369;SDS011;60343;-32.030;115.880;2023-06-19T09:36:23;4.90;;;1.30;;
72369;SDS011;60343;-32.030;115.880;2023-06-19T09:39:00;5.50;;;1.20;;
72369;SDS011;60343;-32.030;115.880;2023-06-19T09:41:38;2.65;;;0.90;;
72369;SDS011;60343;-32.030;115.880;2023-06-19T09:44:17;4.07;;;1.20;;
72369;SDS011;60343;-32.030;115.880;2023-06-19T09:46:54;4.72;;;2.00;;
72369;SDS011;60343;-32.030;115.880;2023-06-19T09:49:39;5.50;;;1.92;;
72369;SDS011;60343;-32.030;115.880;2023-06-19T09:52:21;4.28;;;1.60;;
72369;SDS011;60343;-32.030;115.880;2023-06-19T09:54:58;4.95;;;1.80;;
72369;SDS011;60343;-32.030;115.880;2023-06-19T09:57:39;4.07;;;1.67;;
72369;SDS011;60343;-32.030;115.880;2023-06-19T10:00:16;4.38;;;1.73;;
72369;SDS011;60343;-32.030;115.880;2023-06-19T10:02:57;4.60;;;1.52;;
72369;SDS011;60343;-32.030;115.880;2023-06-19T10:05:41;6.47;;;1.75;;
72369;SDS011;60343;-32.030;115.880;2023-06-19T10:08:26;4.15;;;1.40;;
72369;SDS011;60343;-32.030;115.880;2023-06-19T10:11:04;4.25;;;1.92;;
72369;SDS011;60343;-32.030;115.880;2023-06-19T10:13:40;3.80;;;1.30;;
72369;SDS011;60343;-32.030;115.880;2023-06-19T10:16:20;3.55;;;1.45;;
72369;SDS011;60343;-32.030;115.880;2023-06-19T10:18:57;4.00;;;1.40;;
72369;SDS011;60343;-32.030;115.880;2023-06-19T10:21:43;5.40;;;1.50;;
72369;SDS011;60343;-32.030;115.880;2023-06-19T10:24:23;3.90;;;1.58;;
72369;SDS011;60343;-32.030;115.880;2023-06-19T10:27:00;3.75;;;1.55;;
72369;SDS011;60343;-32.030;115.880;2023-06-19T10:29:40;4.35;;;1.88;;
72369;SDS011;60343;-32.030;115.880;2023-06-19T10:32:17;4.88;;;1.95;;
72369;SDS011;60343;-32.030;115.880;2023-06-19T10:34:53;4.68;;;1.80;;
72369;SDS011;60343;-32.030;115.880;2023-06-19T10:37:40;5.82;;;2.00;;
72369;SDS011;60343;-32.030;115.880;2023-06-19T10:40:18;4.25;;;1.75;;
72369;SDS011;60343;-32.030;115.880;2023-06-19T10:42:54;7.10;;;2.25;;
72369;SDS011;60343;-32.030;115.880;2023-06-19T10:45:30;5.80;;;2.13;;
72369;SDS011;60343;-32.030;115.880;2023-06-19T10:48:08;5.55;;;2.40;;
72369;SDS011;60343;-32.030;115.880;2023-06-19T10:50:45;5.38;;;2.28;;
72369;SDS011;60343;-32.030;115.880;2023-06-19T10:53:31;6.88;;;2.63;;
72369;SDS011;60343;-32.030;115.880;2023-06-19T10:56:07;7.43;;;2.28;;
72369;SDS011;60343;-32.030;115.880;2023-06-19T10:58:46;6.10;;;2.10;;
72369;SDS011;60343;-32.030;115.880;2023-06-19T11:01:36;6.35;;;2.22;;
72369;SDS011;60343;-32.030;115.880;2023-06-19T11:04:13;6.40;;;2.25;;
72369;SDS011;60343;-32.030;115.880;2023-06-19T11:06:51;8.38;;;2.22;;
72369;SDS011;60343;-32.030;115.880;2023-06-19T11:09:34;5.95;;;2.30;;
72369;SDS011;60343;-32.030;115.880;2023-06-19T11:12:11;4.47;;;2.00;;
72369;SDS011;60343;-32.030;115.880;2023-06-19T11:14:52;4.90;;;2.00;;
72369;SDS011;60343;-32.030;115.880;2023-06-19T11:17:28;4.75;;;2.05;;
72369;SDS011;60343;-32.030;115.880;2023-06-19T11:20:08;5.97;;;2.03;;
72369;SDS011;60343;-32.030;115.880;2023-06-19T11:22:46;5.70;;;2.22;;
72369;SDS011;60343;-32.030;115.880;2023-06-19T11:25:41;5.50;;;2.50;;
72369;SDS011;60343;-32.030;115.880;2023-06-19T11:28:18;4.93;;;1.80;;
72369;SDS011;60343;-32.030;115.880;2023-06-19T11:30:58;4.45;;;2.25;;
72369;SDS011;60343;-32.030;115.880;2023-06-19T11:33:36;6.43;;;2.15;;
72369;SDS011;60343;-32.030;115.880;2023-06-19T11:36:12;7.53;;;2.80;;
72369;SDS011;60343;-32.030;115.880;2023-06-19T11:38:48;6.80;;;2.63;;
72369;SDS011;60343;-32.030;115.880;2023-06-19T11:41:32;9.68;;;3.13;;
72369;SDS011;60343;-32.030;115.880;2023-06-19T11:44:08;6.28;;;2.60;;
72369;SDS011;60343;-32.030;115.880;2023-06-19T11:46:45;7.72;;;3.00;;
72369;SDS011;60343;-32.030;115.880;2023-06-19T11:49:21;7.28;;;2.90;;
72369;SDS011;60343;-32.030;115.880;2023-06-19T11:51:59;6.57;;;2.90;;
72369;SDS011;60343;-32.030;115.880;2023-06-19T11:54:35;6.97;;;2.50;;
72369;SDS011;60343;-32.030;115.880;2023-06-19T11:57:18;9.10;;;2.88;;
72369;SDS011;60343;-32.030;115.880;2023-06-19T11:59:54;9.60;;;2.58;;
72369;SDS011;60343;-32.030;115.880;2023-06-19T12:02:33;9.27;;;2.97;;
72369;SDS011;60343;-32.030;115.880;2023-06-19T12:05:09;7.57;;;2.95;;
72369;SDS011;60343;-32.030;115.880;2023-06-19T12:07:46;6.93;;;2.70;;
72369;SDS011;60343;-32.030;115.880;2023-06-19T12:10:22;6.97;;;2.55;;
72369;SDS011;60343;-32.030;115.880;2023-06-19T12:13:04;8.02;;;2.72;;
72369;SDS011;60343;-32.030;115.880;2023-06-19T12:15:41;7.40;;;2.75;;
72369;SDS011;60343;-32.030;115.880;2023-06-19T12:18:17;9.88;;;3.08;;
72369;SDS011;60343;-32.030;115.880;2023-06-19T12:20:54;8.82;;;3.20;;
72369;SDS011;60343;-32.030;115.880;2023-06-19T12:23:30;9.27;;;3.20;;
72369;SDS011;60343;-32.030;115.880;2023-06-19T12:26:06;8.52;;;3.20;;
72369;SDS011;60343;-32.030;115.880;2023-06-19T12:28:49;9.65;;;3.60;;
72369;SDS011;60343;-32.030;115.880;2023-06-19T12:31:25;7.50;;;3.45;;
72369;SDS011;60343;-32.030;115.880;2023-06-19T12:34:02;12.25;;;4.13;;
72369;SDS011;60343;-32.030;115.880;2023-06-19T12:36:39;10.90;;;4.40;;
72369;SDS011;60343;-32.030;115.880;2023-06-19T12:39:15;8.70;;;4.20;;
72369;SDS011;60343;-32.030;115.880;2023-06-19T12:41:52;10.80;;;4.35;;
72369;SDS011;60343;-32.030;115.880;2023-06-19T12:44:34;8.88;;;4.00;;
72369;SDS011;60343;-32.030;115.880;2023-06-19T12:47:11;9.40;;;3.92;;
72369;SDS011;60343;-32.030;115.880;2023-06-19T12:49:47;10.48;;;4.68;;
72369;SDS011;60343;-32.030;115.880;2023-06-19T12:52:23;9.90;;;4.15;;
72369;SDS011;60343;-32.030;115.880;2023-06-19T12:55:00;12.75;;;4.93;;
72369;SDS011;60343;-32.030;115.880;2023-06-19T12:57:36;12.77;;;4.80;;
72369;SDS011;60343;-32.030;115.880;2023-06-19T13:00:19;10.68;;;4.50;;
72369;SDS011;60343;-32.030;115.880;2023-06-19T13:02:55;9.93;;;4.38;;
72369;SDS011;60343;-32.030;115.880;2023-06-19T13:05:31;13.35;;;5.13;;
72369;SDS011;60343;-32.030;115.880;2023-06-19T13:08:08;15.73;;;6.28;;
72369;SDS011;60343;-32.030;115.880;2023-06-19T13:10:44;15.45;;;6.40;;
72369;SDS011;60343;-32.030;115.880;2023-06-19T13:13:20;13.95;;;6.53;;
72369;SDS011;60343;-32.030;115.880;2023-06-19T13:16:03;15.85;;;6.22;;
72369;SDS011;60343;-32.030;115.880;2023-06-19T13:18:39;15.48;;;6.53;;
72369;SDS011;60343;-32.030;115.880;2023-06-19T13:21:15;15.00;;;6.82;;
72369;SDS011;60343;-32.030;115.880;2023-06-19T13:23:52;16.42;;;6.53;;
72369;SDS011;60343;-32.030;115.880;2023-06-19T13:26:28;18.60;;;6.25;;
72369;SDS011;60343;-32.030;115.880;2023-06-19T13:29:04;16.60;;;6.07;;
72369;SDS011;60343;-32.030;115.880;2023-06-19T13:31:47;17.88;;;7.00;;
72369;SDS011;60343;-32.030;115.880;2023-06-19T13:34:26;15.20;;;6.45;;
72369;SDS011;60343;-32.030;115.880;2023-06-19T13:37:03;19.02;;;6.70;;
72369;SDS011;60343;-32.030;115.880;2023-06-19T13:39:39;17.20;;;6.75;;
72369;SDS011;60343;-32.030;115.880;2023-06-19T13:42:16;18.50;;;6.95;;
72369;SDS011;60343;-32.030;115.880;2023-06-19T13:44:53;15.80;;;6.20;;
72369;SDS011;60343;-32.030;115.880;2023-06-19T13:47:35;18.95;;;6.68;;
72369;SDS011;60343;-32.030;115.880;2023-06-19T13:50:12;17.45;;;7.03;;
72369;SDS011;60343;-32.030;115.880;2023-06-19T13:52:48;17.55;;;7.10;;
72369;SDS011;60343;-32.030;115.880;2023-06-19T13:55:24;18.33;;;6.90;;
72369;SDS011;60343;-32.030;115.880;2023-06-19T13:58:01;17.25;;;6.43;;
72369;SDS011;60343;-32.030;115.880;2023-06-19T14:00:37;16.52;;;6.50;;
72369;SDS011;60343;-32.030;115.880;2023-06-19T14:03:20;19.98;;;7.32;;
72369;SDS011;60343;-32.030;115.880;2023-06-19T14:05:57;19.35;;;7.32;;
72369;SDS011;60343;-32.030;115.880;2023-06-19T14:08:34;20.77;;;7.70;;
72369;SDS011;60343;-32.030;115.880;2023-06-19T14:11:10;17.98;;;7.00;;
72369;SDS011;60343;-32.030;115.880;2023-06-19T14:13:46;17.67;;;7.22;;
72369;SDS011;60343;-32.030;115.880;2023-06-19T14:16:23;20.15;;;7.10;;
72369;SDS011;60343;-32.030;115.880;2023-06-19T14:19:05;21.85;;;7.70;;
72369;SDS011;60343;-32.030;115.880;2023-06-19T14:21:42;18.27;;;6.88;;
72369;SDS011;60343;-32.030;115.880;2023-06-19T14:24:18;16.58;;;6.50;;
72369;SDS011;60343;-32.030;115.880;2023-06-19T14:26:55;19.85;;;6.47;;
72369;SDS011;60343;-32.030;115.880;2023-06-19T14:29:31;16.98;;;6.47;;
72369;SDS011;60343;-32.030;115.880;2023-06-19T14:32:07;13.68;;;5.93;;
72369;SDS011;60343;-32.030;115.880;2023-06-19T14:34:50;14.27;;;5.90;;
72369;SDS011;60343;-32.030;115.880;2023-06-19T14:37:26;14.70;;;5.65;;
72369;SDS011;60343;-32.030;115.880;2023-06-19T14:40:03;14.25;;;6.00;;
72369;SDS011;60343;-32.030;115.880;2023-06-19T14:42:40;16.05;;;5.70;;
72369;SDS011;60343;-32.030;115.880;2023-06-19T14:45:16;13.05;;;4.85;;
72369;SDS011;60343;-32.030;115.880;2023-06-19T14:47:54;15.70;;;5.53;;
72369;SDS011;60343;-32.030;115.880;2023-06-19T14:50:36;12.75;;;5.22;;
72369;SDS011;60343;-32.030;115.880;2023-06-19T14:53:13;13.70;;;4.90;;
72369;SDS011;60343;-32.030;115.880;2023-06-19T14:55:49;10.35;;;4.70;;
72369;SDS011;60343;-32.030;115.880;2023-06-19T14:58:25;13.30;;;5.28;;
72369;SDS011;60343;-32.030;115.880;2023-06-19T15:01:04;15.05;;;5.72;;
72369;SDS011;60343;-32.030;115.880;2023-06-19T15:03:40;11.98;;;4.65;;
72369;SDS011;60343;-32.030;115.880;2023-06-19T15:06:24;11.15;;;5.22;;
72369;SDS011;60343;-32.030;115.880;2023-06-19T15:09:01;15.73;;;5.35;;